Linwood, Michigan
Current Conditions -  °F | °C
As of 10:53 AM on Friday 21 Nov 2014 (Local Time) from KMBS Reporting Station
Clear Clear  
Wind Chill: 11°   Ceiling: Unl
Heat Index: 21°   Visibility: 10mi
Dew Point: 12°   Wind: 9mph
Humidity: 68%   Direction: 250°WSW
Pressure: 30.43"   Gusts: NA
Location:  43.74°N, 83.96°W
Report Text: KMBS 211553Z 25008KT 10SM CLR M06/M11 A3043 RMK AO2 SLP318 T10611111
Loading
Personal Weather Stations






























Interactive Weather Map New forecast layout! Learn more

10-Day Weather Forecast

Advertisements
Track Severe Weather on mobile